createdAt,value
2023-03-06T00:03:47.854Z,571.00
2023-03-06T00:04:47.736Z,571.00
2023-03-06T01:56:40.665Z,560.00
2023-03-06T01:57:40.665Z,560.00
2023-03-06T01:58:40.537Z,561.00
2023-03-06T01:59:40.485Z,562.00
2023-03-06T02:33:38.397Z,554.00
2023-03-06T02:34:38.349Z,555.00
2023-03-06T02:35:38.402Z,554.00
2023-03-06T02:36:38.212Z,556.00
2023-03-06T02:37:38.156Z,557.00
2023-03-06T02:38:38.094Z,554.00
2023-03-06T02:39:38.029Z,555.00
2023-03-06T02:40:37.965Z,555.00
2023-03-06T02:41:37.902Z,556.00
2023-03-06T02:42:37.855Z,557.00
2023-03-06T02:43:37.794Z,558.00
2023-03-06T02:44:37.719Z,558.00
2023-03-06T04:50:30.904Z,554.00
2023-03-06T04:51:30.868Z,553.00
2023-03-06T04:52:30.824Z,555.00
2023-03-06T04:53:30.795Z,556.00
2023-03-06T04:54:30.769Z,558.00
2023-03-06T04:55:30.736Z,556.00
2023-03-06T04:56:30.689Z,556.00
2023-03-06T04:57:30.646Z,554.00
2023-03-06T04:58:30.614Z,556.00
2023-03-06T04:59:30.569Z,556.00
2023-03-06T05:00:30.539Z,559.00
2023-03-06T05:01:30.492Z,561.00
2023-03-06T05:02:30.468Z,557.00
2023-03-06T05:03:30.412Z,557.00
2023-03-06T05:04:30.379Z,555.00
2023-03-06T05:05:30.340Z,555.00
2023-03-06T05:06:30.297Z,556.00
2023-03-06T05:07:30.255Z,555.00
2023-03-06T05:08:30.213Z,556.00
2023-03-06T05:09:30.209Z,554.00
2023-03-06T05:10:30.129Z,554.00
2023-03-06T05:11:30.091Z,555.00
2023-03-06T05:12:30.057Z,557.00
2023-03-06T05:13:30.018Z,556.00
2023-03-06T05:14:29.971Z,555.00
2023-03-06T05:15:29.996Z,553.00
2023-03-06T05:16:29.913Z,553.00
2023-03-06T05:17:29.810Z,549.00
2023-03-06T05:18:29.795Z,550.00
2023-03-06T05:19:29.721Z,550.00
2023-03-06T05:20:29.667Z,549.00
2023-03-06T05:21:29.633Z,551.00
2023-03-06T05:22:29.590Z,552.00
2023-03-06T05:23:29.546Z,553.00
2023-03-06T05:24:29.511Z,551.00
2023-03-06T05:25:29.477Z,556.00
2023-03-06T05:26:29.429Z,556.00
2023-03-06T05:27:29.393Z,556.00
2023-03-06T05:39:28.900Z,557.00
2023-03-06T05:40:28.848Z,554.00
2023-03-06T05:41:28.803Z,553.00
2023-03-06T05:42:28.901Z,551.00
2023-03-06T05:43:28.739Z,551.00
2023-03-06T05:44:28.679Z,550.00
2023-03-06T05:45:28.652Z,549.00
2023-03-06T05:46:28.609Z,549.00
2023-03-06T05:47:28.562Z,554.00
2023-03-06T05:48:28.521Z,555.00
2023-03-06T05:49:28.477Z,558.00
2023-03-06T05:50:28.436Z,556.00
2023-03-06T05:51:28.405Z,554.00
2023-03-06T05:57:28.147Z,551.00
2023-03-06T05:58:28.119Z,551.00
2023-03-06T05:59:28.064Z,553.00
2023-03-06T06:00:28.020Z,552.00
2023-03-06T06:01:27.981Z,552.00
2023-03-06T06:02:27.981Z,554.00
2023-03-06T06:03:27.967Z,555.00
2023-03-06T06:04:27.870Z,556.00
2023-03-06T06:05:27.821Z,554.00
2023-03-06T06:06:27.825Z,553.00
2023-03-06T06:07:27.738Z,554.00
2023-03-06T07:59:20.727Z,1442.00
2023-03-06T08:00:20.617Z,1461.00
2023-03-06T08:01:20.531Z,1479.00
2023-03-06T08:02:21.433Z,1496.00
2023-03-06T08:03:20.423Z,1533.00
2023-03-06T08:04:20.428Z,1551.00
2023-03-06T08:05:20.307Z,1563.00
2023-03-06T08:06:20.274Z,1586.00
2023-03-06T08:07:20.216Z,1607.00
2023-03-06T08:08:20.185Z,1636.00
2023-03-06T08:09:20.128Z,1656.00
2023-03-06T08:10:20.072Z,1693.00
2023-03-06T08:11:20.067Z,1705.00
2023-03-06T08:12:19.954Z,1715.00
2023-03-06T08:13:19.891Z,1727.00
2023-03-06T08:14:19.838Z,1753.00
2023-03-06T08:15:19.809Z,1820.00
2023-03-06T08:16:19.744Z,1885.00
2023-03-06T08:17:19.657Z,1865.00
2023-03-06T08:18:19.639Z,1850.00
2023-03-06T08:19:19.548Z,1843.00
2023-03-06T08:20:20.393Z,1837.00
2023-03-06T08:21:19.421Z,1831.00
2023-03-06T08:22:19.373Z,1827.00
2023-03-06T08:23:19.321Z,1830.00
2023-03-06T08:24:19.276Z,1824.00
2023-03-06T08:25:19.224Z,1823.00
2023-03-06T08:26:19.168Z,1820.00
2023-03-06T08:27:19.267Z,1815.00
2023-03-06T08:28:19.064Z,1806.00
2023-03-06T08:29:19.045Z,1806.00
2023-03-06T08:30:18.972Z,1801.00
2023-03-06T08:31:19.060Z,1800.00
2023-03-06T08:32:18.964Z,1794.00
2023-03-06T08:33:18.837Z,1788.00
2023-03-06T08:34:18.790Z,1789.00
2023-03-06T08:35:18.739Z,1787.00
2023-03-06T08:36:18.652Z,1783.00
2023-03-06T08:37:18.639Z,1778.00
2023-03-06T08:38:18.493Z,1774.00
2023-03-06T08:39:18.392Z,1767.00
2023-03-06T08:40:18.323Z,1763.00
2023-03-06T08:41:18.237Z,1762.00
2023-03-06T08:42:18.159Z,1758.00
2023-03-06T08:43:18.295Z,1751.00
2023-03-06T08:44:18.005Z,1747.00
2023-03-06T08:45:17.888Z,1746.00
2023-03-06T08:46:17.773Z,1739.00
2023-03-06T09:14:14.844Z,1668.00
2023-03-06T09:16:14.670Z,1674.00
2023-03-06T09:17:14.699Z,1682.00
2023-03-06T09:18:14.456Z,1687.00
2023-03-06T09:19:14.391Z,1683.00
2023-03-06T09:20:14.332Z,1689.00
2023-03-06T09:21:14.285Z,1697.00
2023-03-06T09:22:14.201Z,1708.00
2023-03-06T09:23:14.163Z,1714.00
2023-03-06T09:24:14.148Z,1724.00
2023-03-06T09:25:14.080Z,1728.00
2023-03-06T09:26:14.029Z,1726.00
2023-03-06T09:27:13.967Z,1727.00
2023-03-06T09:28:13.928Z,1715.00
2023-03-06T09:29:13.883Z,1714.00
2023-03-06T09:30:13.869Z,1714.00
2023-03-06T09:31:13.869Z,1715.00
2023-03-06T09:32:13.787Z,1714.00
2023-03-06T09:33:13.693Z,1713.00
2023-03-06T09:34:13.636Z,1707.00
2023-03-06T09:35:13.615Z,1706.00
2023-03-06T09:36:13.553Z,1708.00
2023-03-06T09:37:14.244Z,1704.00
2023-03-06T09:38:13.449Z,1703.00
2023-03-06T09:39:13.399Z,1702.00
2023-03-06T09:40:13.353Z,1702.00
2023-03-06T09:41:13.287Z,1702.00
2023-03-06T10:50:08.489Z,1598.00
2023-03-06T10:52:07.639Z,1600.00
2023-03-06T10:53:07.525Z,1597.00
2023-03-06T10:54:07.422Z,1594.00
2023-03-06T10:55:07.327Z,1592.00
2023-03-06T10:56:07.240Z,1590.00
2023-03-06T10:57:07.141Z,1591.00
2023-03-06T10:58:07.036Z,1588.00
2023-03-06T10:59:06.928Z,1587.00
2023-03-06T11:00:06.824Z,1587.00
2023-03-06T11:01:06.770Z,1585.00
2023-03-06T11:02:06.655Z,1587.00
2023-03-06T11:03:06.557Z,1587.00
2023-03-06T11:04:06.481Z,1587.00
2023-03-06T11:05:06.349Z,1584.00
2023-03-06T11:06:06.274Z,1579.00
2023-03-06T11:07:06.162Z,1579.00
2023-03-06T11:08:06.048Z,1578.00
2023-03-06T11:09:05.958Z,1574.00
2023-03-06T11:10:05.842Z,1571.00
2023-03-06T11:11:05.826Z,1567.00
2023-03-06T11:12:05.699Z,1565.00
2023-03-06T11:13:05.606Z,1569.00
2023-03-06T11:14:05.479Z,1582.00
2023-03-06T11:15:05.448Z,1612.00
2023-03-06T11:16:05.303Z,1656.00
2023-03-06T11:17:05.178Z,1670.00
2023-03-06T11:18:05.081Z,1695.00
2023-03-06T11:19:04.974Z,1721.00
2023-03-06T11:20:04.863Z,1738.00
2023-03-06T11:21:04.756Z,1761.00
2023-03-06T11:22:04.648Z,1778.00
2023-03-06T11:23:04.548Z,1786.00
2023-03-06T11:24:04.523Z,1798.00
2023-03-06T11:25:04.510Z,1807.00
2023-03-06T11:27:04.345Z,1818.00
2023-03-06T11:28:04.248Z,1836.00
2023-03-06T11:29:04.192Z,1841.00
2023-03-06T11:30:04.044Z,1849.00
2023-03-06T11:32:03.832Z,1861.00
2023-03-06T11:33:03.708Z,1869.00
2023-03-06T11:34:03.616Z,1878.00
2023-03-06T11:35:03.500Z,1895.00
2023-03-06T11:36:03.398Z,1908.00
2023-03-06T11:37:03.359Z,1918.00
2023-03-06T11:38:03.367Z,1929.00
2023-03-06T12:41:57.891Z,1664.00
2023-03-06T12:42:57.844Z,1725.00
2023-03-06T12:43:57.794Z,1699.00
2023-03-06T12:44:57.760Z,1590.00
2023-03-06T12:45:57.726Z,1465.00
2023-03-06T12:46:57.658Z,1368.00
2023-03-06T12:47:57.618Z,1388.00
2023-03-06T12:48:57.556Z,1505.00
2023-03-06T12:49:57.501Z,1514.00
2023-03-06T12:50:57.459Z,1503.00
2023-03-06T12:51:57.379Z,1587.00
2023-03-06T12:52:57.283Z,1594.00
2023-03-06T12:53:57.188Z,1597.00
2023-03-06T12:54:57.108Z,1602.00
2023-03-06T12:55:57.101Z,1605.00
2023-03-06T12:56:56.966Z,1600.00
2023-03-06T12:57:56.881Z,1595.00
2023-03-06T12:58:56.812Z,1586.00
2023-03-06T12:59:56.764Z,1583.00
2023-03-06T13:01:03.562Z,1579.00
2023-03-06T13:01:57.566Z,1570.00
2023-03-06T13:02:56.454Z,1565.00
2023-03-06T13:03:56.333Z,1560.00
2023-03-06T13:05:56.664Z,1557.00
2023-03-06T13:06:56.005Z,1552.00
2023-03-06T13:07:55.884Z,1549.00
2023-03-06T13:08:55.774Z,1550.00
2023-03-06T13:09:55.654Z,1549.00
2023-03-06T13:10:55.548Z,1543.00
2023-03-06T13:11:56.102Z,1543.00
2023-03-06T13:12:55.363Z,1542.00
2023-03-06T13:13:55.311Z,1544.00
2023-03-06T13:14:55.344Z,1546.00
2023-03-06T13:15:55.207Z,1543.00
2023-03-06T13:16:55.148Z,1540.00
2023-03-06T13:17:55.090Z,1537.00
2023-03-06T13:18:55.042Z,1539.00
2023-03-06T13:19:54.977Z,1536.00
2023-03-06T13:20:54.914Z,1539.00
2023-03-06T13:21:54.853Z,1538.00
2023-03-06T13:22:54.798Z,1534.00
2023-03-06T13:23:54.754Z,1533.00
2023-03-06T13:24:55.048Z,1528.00
2023-03-06T13:25:55.622Z,1529.00
2023-03-06T13:26:54.486Z,1525.00
2023-03-06T13:27:54.357Z,1521.00
2023-03-06T13:28:54.269Z,1523.00
2023-03-06T13:29:54.140Z,1525.00
2023-03-06T13:30:54.066Z,1525.00
2023-03-06T13:31:53.909Z,1527.00
2023-03-06T13:32:53.830Z,1523.00
2023-03-06T13:33:53.698Z,1524.00
2023-03-06T13:34:53.582Z,1529.00
2023-03-06T13:35:53.562Z,1528.00
2023-03-06T13:36:53.462Z,1531.00
2023-03-06T13:37:53.403Z,1533.00
2023-03-06T13:38:53.366Z,1529.00
2023-03-06T13:39:53.313Z,1530.00
2023-03-06T14:15:50.250Z,1502.00
2023-03-06T14:16:50.770Z,1492.00
2023-03-06T14:17:49.944Z,1490.00
2023-03-06T14:18:49.896Z,1489.00
2023-03-06T14:19:49.734Z,1491.00
2023-03-06T14:20:49.624Z,1489.00
2023-03-06T14:21:49.545Z,1485.00
2023-03-06T14:22:49.435Z,1485.00
2023-03-06T14:23:49.333Z,1485.00
2023-03-06T14:24:49.231Z,1489.00
2023-03-06T14:25:49.117Z,1491.00
2023-03-06T14:26:49.012Z,1489.00
2023-03-06T14:27:48.914Z,1491.00
2023-03-06T14:28:48.814Z,1489.00
2023-03-06T14:29:48.785Z,1486.00
2023-03-06T14:30:48.634Z,1481.00
2023-03-06T14:31:48.540Z,1483.00
2023-03-06T14:32:48.433Z,1481.00
2023-03-06T14:33:48.314Z,1479.00
2023-03-06T14:34:48.228Z,1478.00
2023-03-06T14:35:48.230Z,1476.00
2023-03-06T14:36:48.028Z,1476.00
2023-03-06T14:37:47.934Z,1476.00
2023-03-06T14:38:47.822Z,1481.00
2023-03-06T14:39:47.732Z,1481.00
2023-03-06T14:40:47.620Z,1483.00
2023-03-06T14:41:47.513Z,1485.00
2023-03-06T14:42:47.414Z,1486.00
2023-03-06T14:43:47.302Z,1480.00
2023-03-06T14:44:47.202Z,1482.00
2023-03-06T14:45:47.104Z,1479.00
2023-03-06T14:46:47.054Z,1478.00
2023-03-06T14:47:46.940Z,1475.00
2023-03-06T14:48:46.850Z,1478.00
2023-03-06T14:49:46.761Z,1476.00
2023-03-06T14:50:46.686Z,1472.00
2023-03-06T14:51:46.556Z,1470.00
2023-03-06T14:52:46.443Z,1468.00
2023-03-06T14:53:46.338Z,1469.00
2023-03-06T14:54:46.252Z,1465.00
2023-03-06T14:55:46.170Z,1470.00
2023-03-06T14:56:46.190Z,1477.00
2023-03-06T14:57:46.002Z,1476.00
2023-03-06T14:58:45.872Z,1474.00
2023-03-06T14:59:45.788Z,1474.00
2023-03-06T15:00:45.702Z,1473.00
2023-03-06T15:01:45.628Z,1473.00
2023-03-06T15:02:45.571Z,1470.00
2023-03-06T15:03:45.387Z,1469.00
2023-03-06T15:04:45.308Z,1465.00
2023-03-06T15:05:45.198Z,1463.00
2023-03-06T15:06:45.238Z,1462.00
2023-03-06T15:07:44.979Z,1459.00
2023-03-06T15:08:44.870Z,1461.00
2023-03-06T15:09:44.768Z,1460.00
2023-03-06T15:10:44.658Z,1459.00
2023-03-06T15:11:44.577Z,1456.00
2023-03-06T15:12:44.455Z,1457.00
2023-03-06T15:13:44.348Z,1460.00
2023-03-06T15:14:44.244Z,1459.00
2023-03-06T15:15:44.148Z,1459.00
2023-03-06T15:16:44.101Z,1456.00
2023-03-06T15:17:43.949Z,1458.00
2023-03-06T15:18:43.853Z,1453.00
2023-03-06T15:19:43.755Z,1452.00
2023-03-06T15:20:43.672Z,1453.00
2023-03-06T15:21:43.558Z,1454.00
2023-03-06T15:22:43.516Z,1450.00
2023-03-06T15:23:43.377Z,1448.00
2023-03-06T15:24:43.299Z,1449.00
2023-03-06T16:40:37.149Z,1408.00
2023-03-06T16:41:37.101Z,1411.00
2023-03-06T16:42:37.019Z,1412.00
2023-03-06T16:43:36.961Z,1411.00
2023-03-06T16:45:36.825Z,1407.00
2023-03-06T17:18:34.937Z,1390.00
2023-03-06T17:19:34.889Z,1391.00
2023-03-06T17:20:34.848Z,1393.00
2023-03-06T17:21:34.764Z,1392.00
2023-03-06T17:22:34.756Z,1392.00
2023-03-06T17:23:34.672Z,1392.00
2023-03-06T17:24:34.600Z,1389.00
2023-03-06T17:25:34.534Z,1387.00
2023-03-06T17:26:34.504Z,1388.00
2023-03-06T17:27:34.442Z,1392.00
2023-03-06T17:28:34.380Z,1390.00
2023-03-06T17:29:34.321Z,1393.00
2023-03-06T17:30:34.273Z,1392.00
2023-03-06T17:31:34.244Z,1392.00
2023-03-06T17:32:34.236Z,1390.00
2023-03-06T17:33:34.121Z,1387.00
2023-03-06T17:34:34.070Z,1387.00
2023-03-06T17:35:34.076Z,1387.00
2023-03-06T17:36:33.990Z,1388.00
2023-03-06T17:37:33.948Z,1385.00
2023-03-06T17:38:33.893Z,1387.00
2023-03-06T17:39:33.846Z,1386.00
2023-03-06T17:40:33.813Z,1383.00
2023-03-06T17:41:33.756Z,1378.00
2023-03-06T17:42:33.716Z,1374.00
2023-03-06T17:43:33.679Z,1371.00
2023-03-06T17:44:33.635Z,1370.00
2023-03-06T17:45:33.595Z,1371.00
2023-03-06T17:46:33.617Z,1370.00
2023-03-06T17:47:33.507Z,1373.00
2023-03-06T17:48:33.490Z,1372.00
2023-03-06T17:49:33.430Z,1372.00
2023-03-06T17:50:33.406Z,1373.00
2023-03-06T17:51:33.362Z,1374.00
2023-03-06T17:52:33.323Z,1368.00
2023-03-06T19:45:28.081Z,1316.00
2023-03-06T19:46:28.037Z,1313.00
2023-03-06T19:47:28.010Z,1310.00
2023-03-06T19:48:27.972Z,1308.00
2023-03-06T19:49:27.951Z,1308.00
2023-03-06T19:50:27.910Z,1303.00
2023-03-06T19:51:27.863Z,1304.00
2023-03-06T19:52:27.827Z,1305.00
2023-03-06T19:53:27.777Z,1304.00
2023-03-06T19:54:27.746Z,1303.00
2023-03-06T19:55:27.694Z,1302.00
2023-03-06T19:56:27.652Z,1299.00
2023-03-06T19:57:27.619Z,1298.00
2023-03-06T19:58:27.595Z,1298.00
2023-03-06T19:59:27.534Z,1297.00
2023-03-06T20:00:27.503Z,1300.00
2023-03-06T20:01:27.521Z,1298.00
2023-03-06T20:02:27.413Z,1297.00
2023-03-06T20:03:27.355Z,1296.00
2023-03-06T20:04:27.385Z,1299.00
2023-03-06T20:05:27.281Z,1297.00
2023-03-06T20:06:27.239Z,1299.00
2023-03-06T20:07:27.221Z,1302.00
2023-03-06T20:08:27.161Z,1299.00
2023-03-06T20:09:27.129Z,1290.00
2023-03-06T20:10:27.091Z,1289.00
2023-03-06T20:11:27.054Z,1287.00
2023-03-06T20:12:27.016Z,1289.00
2023-03-06T20:13:27.002Z,1288.00
2023-03-06T20:14:26.949Z,1291.00
2023-03-06T20:15:26.957Z,1295.00
2023-03-06T20:16:26.888Z,1293.00
2023-03-06T20:17:26.871Z,1295.00
2023-03-06T20:18:26.834Z,1293.00
2023-03-06T20:19:26.787Z,1291.00
2023-03-06T20:20:26.767Z,1292.00
2023-03-06T20:21:26.718Z,1290.00
2023-03-06T20:22:26.678Z,1290.00
2023-03-06T20:23:26.661Z,1288.00
2023-03-06T20:24:26.595Z,1288.00
2023-03-06T20:25:26.555Z,1289.00
2023-03-06T20:26:27.504Z,1288.00
2023-03-06T20:27:26.470Z,1281.00
2023-03-06T20:28:26.423Z,1278.00
2023-03-06T20:29:28.229Z,1280.00
2023-03-06T20:30:31.476Z,1279.00
2023-03-06T20:31:27.281Z,1282.00
2023-03-06T20:32:26.189Z,1282.00
2023-03-06T20:33:26.041Z,1282.00
2023-03-06T20:38:25.509Z,1282.00
2023-03-06T20:39:25.424Z,1278.00
2023-03-06T20:40:25.391Z,1279.00
2023-03-06T20:41:25.316Z,1279.00
2023-03-06T20:42:25.306Z,1279.00
2023-03-06T20:43:25.241Z,1279.00
2023-03-06T20:44:25.190Z,1276.00
2023-03-06T20:45:25.159Z,1276.00
2023-03-06T20:46:25.126Z,1277.00
2023-03-06T20:47:25.086Z,1276.00
2023-03-06T20:48:25.055Z,1272.00
2023-03-06T20:49:27.185Z,1275.00
2023-03-06T20:50:24.964Z,1276.00
2023-03-06T20:51:24.930Z,1277.00
2023-03-06T20:52:24.881Z,1275.00
2023-03-06T20:53:24.840Z,1273.00
2023-03-06T20:54:24.804Z,1274.00
2023-03-06T20:55:24.766Z,1276.00
2023-03-06T20:56:24.731Z,1274.00
2023-03-06T20:57:24.703Z,1273.00
2023-03-06T20:58:24.674Z,1270.00
2023-03-06T20:59:24.636Z,1271.00
2023-03-06T21:00:24.602Z,1273.00
2023-03-06T21:01:24.601Z,1272.00
2023-03-06T21:02:24.526Z,1271.00
2023-03-06T21:03:24.504Z,1267.00
2023-03-06T21:04:24.446Z,1267.00
2023-03-06T21:05:24.381Z,1265.00
2023-03-06T21:06:24.345Z,1265.00
2023-03-06T21:07:24.289Z,1261.00
2023-03-06T21:08:24.262Z,1263.00
2023-03-06T21:09:24.204Z,1263.00
2023-03-06T21:10:24.149Z,1261.00
2023-03-06T21:11:24.080Z,1260.00
2023-03-06T21:12:24.033Z,1263.00
2023-03-06T21:13:23.980Z,1263.00
2023-03-06T21:14:23.909Z,1266.00
2023-03-06T21:15:23.867Z,1263.00
2023-03-06T21:16:23.863Z,1262.00
2023-03-06T21:17:23.798Z,1260.00
2023-03-06T21:18:23.762Z,1258.00
2023-03-06T21:19:23.715Z,1258.00
2023-03-06T21:20:23.670Z,1258.00
2023-03-06T21:21:23.633Z,1258.00
2023-03-06T21:22:23.604Z,1255.00
2023-03-06T21:23:23.555Z,1255.00
2023-03-06T21:24:23.487Z,1256.00
2023-03-06T21:25:23.411Z,1262.00
2023-03-06T21:26:23.353Z,1261.00
2023-03-06T21:27:23.299Z,1259.00
2023-03-06T22:22:20.531Z,1226.00
2023-03-06T22:23:20.469Z,1226.00
2023-03-06T22:25:20.397Z,1223.00
2023-03-06T22:26:20.347Z,1220.00
2023-03-06T22:28:20.284Z,1219.00
2023-03-06T22:29:20.224Z,1221.00
2023-03-06T22:30:20.187Z,1224.00
2023-03-06T22:31:20.204Z,1225.00
2023-03-06T22:33:20.119Z,1221.00
2023-03-06T22:34:20.039Z,1223.00
2023-03-06T23:16:17.801Z,1196.00
2023-03-06T23:17:17.751Z,1196.00
2023-03-06T23:18:17.699Z,1198.00
2023-03-06T23:19:17.645Z,1197.00
2023-03-06T23:20:17.590Z,1200.00
2023-03-06T23:21:17.538Z,1197.00
2023-03-06T23:22:17.487Z,1199.00
2023-03-06T23:23:17.441Z,1199.00
2023-03-06T23:24:17.393Z,1198.00
2023-03-06T23:25:17.345Z,1198.00
2023-03-06T23:26:17.303Z,1196.00
2023-03-06T23:27:17.259Z,1192.00
2023-03-06T23:28:17.224Z,1195.00
2023-03-06T23:29:17.197Z,1197.00
2023-03-06T23:30:17.172Z,1196.00
2023-03-06T23:31:17.163Z,1193.00
2023-03-06T23:32:17.087Z,1192.00
2023-03-06T23:33:17.001Z,1192.00
2023-03-06T23:34:16.964Z,1194.00
2023-03-06T23:35:16.906Z,1193.00
2023-03-06T23:36:16.838Z,1193.00
2023-03-06T23:37:16.787Z,1192.00
2023-03-06T23:38:16.756Z,1187.00
2023-03-06T23:39:16.713Z,1184.00
2023-03-06T23:40:16.625Z,1182.00
2023-03-06T23:41:16.560Z,1180.00
2023-03-06T23:42:16.495Z,1178.00
2023-03-06T23:43:16.437Z,1179.00
2023-03-06T23:44:16.354Z,1183.00
2023-03-06T23:45:16.296Z,1181.00
2023-03-06T23:46:16.229Z,1181.00
2023-03-06T23:47:16.152Z,1181.00
2023-03-06T23:48:16.085Z,1183.00
2023-03-06T23:49:16.015Z,1181.00
2023-03-06T23:50:15.958Z,1183.00
2023-03-06T23:51:15.900Z,1181.00
2023-03-06T23:52:15.817Z,1182.00
2023-03-06T23:53:15.720Z,1183.00
2023-03-06T23:54:15.634Z,1183.00
2023-03-06T23:55:15.545Z,1180.00
2023-03-06T23:56:15.506Z,1183.00
2023-03-06T23:57:15.385Z,1183.00
2023-03-06T23:58:15.316Z,1184.00
2023-03-06T23:59:15.245Z,1180.00
